Data for 04/28/2007

Time Sea-Level Adjusted Pressure Absolute Pressure Temperature Relative Humidity Dew Point   
(mb) (inHg) (mb) (inHg) (C) (F) (%) (C) (F)
00:05 1021 30.15 850 25.1 9.9 49.9 52 0.5 32.8
00:10 1021 30.15 850 25.1 9.8 49.6 53 0.7 33.2
00:15 1021 30.15 850 25.1 9.5 49.2 53 0.5 32.9
00:20 1021 30.15 850 25.1 9.5 49.2 52 0.3 32.6
00:25 1021 30.15 850 25.1 9.7 49.4 52 0.3 32.5
00:30 1021 30.15 850 25.1 9.8 49.6 53 0.6 33.1
00:35 1021 30.15 850 25.1 9.4 48.9 54 0.5 33
00:40 1021 30.15 850 25.1 9.3 48.8 52 0.1 32.2
00:45 1021 30.15 850 25.1 9.5 49.1 52 0.2 32.3
00:50 1021 30.15 850 25.1 9.5 49.1 52 0.2 32.4
00:55 1021 30.15 850 25.1 9.4 48.9 53 0.3 32.5
01:00 1021 30.15 850 25.1 9.4 48.9 52 0 32
01:05 1021 30.15 850 25.1 9.7 49.4 50 -0.1 31.8
01:10 1021 30.15 850 25.1 9.9 49.8 50 -0 32
01:15 1021 30.15 850 25.1 10.1 50.1 49 -0 32
01:20 1021 30.15 850 25.1 9.9 49.7 51 0.2 32.3
01:25 1021 30.15 850 25.1 9.6 49.4 52 0.2 32.3
01:30 1021 30.15 850 25.1 9.6 49.2 52 0.2 32.4
01:35 1021 30.15 850 25.1 9.4 48.9 53 0.3 32.5
01:40 1021 30.15 850 25.1 8.9 48.1 55 0.5 32.9
01:45 1021 30.15 850 25.1 8.6 47.5 56 0.5 32.8
01:50 1021 30.15 850 25.1 8.4 47.1 57 0.4 32.8
01:55 1021 30.15 850 25.1 8.4 47.1 57 0.3 32.6
02:00 1021 30.15 850 25.1 8.5 47.4 57 0.4 32.8
02:05 1021 30.15 850 25.1 8.8 47.8 56 0.4 32.7
02:10 1021 30.15 850 25.1 8.9 47.9 55 0.3 32.5
02:15 1021 30.15 850 25.1 9 48.1 54 0.2 32.4
02:20 1021 30.15 850 25.1 9.1 48.3 53 0.1 32.2
02:25 1021 30.15 850 25.1 8.9 48 55 0.3 32.5
02:30 1021 30.15 850 25.1 8.6 47.5 56 0.4 32.7
02:35 1021 30.15 850 25.1 8.4 47 56 0.1 32.1
02:40 1021 30.15 850 25.1 8.4 47.1 55 -0.1 31.7
02:45 1021 30.15 850 25.1 8.7 47.6 53 -0.4 31.3
02:50 1021 30.15 850 25.1 9.3 48.7 50 -0.6 30.9
02:55 1021 30.15 850 25.1 9.8 49.7 49 -0.4 31.2
03:00 1021 30.15 850 25.1 9.7 49.4 51 -0 32
03:05 1021 30.15 850 25.1 8.8 47.8 55 0.2 32.4
03:10 1021 30.15 850 25.1 8.1 46.6 58 0.3 32.5
03:15 1021 30.15 850 25.1 7.8 46 59 0.4 32.6
03:20 1021 30.15 850 25.1 7.6 45.6 59 0.2 32.3
03:25 1021 30.15 850 25.1 7.8 46 58 0.2 32.3
03:30 1021 30.15 850 25.1 8.1 46.5 56 -0.1 31.8
03:35 1021 30.15 850 25.1 8.7 47.7 54 -0 32
03:40 1021 30.15 850 25.1 8.6 47.4 56 0.3 32.5
03:45 1021 30.15 850 25.1 8 46.3 57 -0 31.9
03:50 1021 30.15 850 25.1 8.2 46.7 56 -0.1 31.9
03:55 1021 30.15 850 25.1 8.1 46.7 57 0.1 32.1
04:00 1021 30.15 850 25.1 8.1 46.5 56 -0.1 31.8
04:05 1021 30.15 850 25.1 8.1 46.6 56 -0.1 31.8
04:10 1021 30.15 850 25.1 8.1 46.5 56 -0.1 31.9
04:15 1021 30.15 850 25.1 8.2 46.8 56 0.1 32.1
04:20 1021 30.15 850 25.1 8.1 46.5 57 0 32
04:25 1021 30.15 850 25.1 8.3 46.9 56 0.1 32.1
04:30 1021 30.15 850 25.1 8.2 46.7 56 -0.1 31.8
04:35 1021 30.15 850 25.1 8.4 47.2 55 -0.1 31.9
04:40 1020 30.12 850 25.1 8.5 47.2 55 -0 31.9
04:45 1020 30.12 850 25.1 8.4 47 55 -0 31.9
04:50 1020 30.12 850 25.1 8.3 46.9 56 0 32.1
04:55 1020 30.12 850 25.1 8.2 46.8 56 -0 32
05:00 1020 30.12 850 25.1 8.2 46.8 56 0 32
05:05 1020 30.12 850 25.1 8.1 46.6 56 -0 32
05:10 1020 30.12 850 25.1 8 46.3 57 0 32.1
05:15 1020 30.12 850 25.1 8.1 46.6 56 -0.2 31.7
05:20 1020 30.12 849 25.07 8.3 47 55 -0.2 31.7
05:25 1020 30.12 849 25.07 8.4 47.2 55 -0 31.9
05:30 1020 30.12 849 25.07 8.2 46.8 57 0.1 32.2
05:35 1020 30.12 849 25.07 8.1 46.5 57 0.1 32.1
05:40 1020 30.12 849 25.07 7.9 46.3 57 -0.1 31.8
05:45 1020 30.12 849 25.07 8.2 46.7 56 -0.1 31.9
05:50 1020 30.12 849 25.07 8.2 46.8 56 -0.1 31.8
05:55 1020 30.12 849 25.07 8.4 47 56 0.2 32.4
06:00 1020 30.12 849 25.07 8.3 46.9 55 -0.3 31.5
06:05 1020 30.12 849 25.07 8.4 47.2 55 -0.1 31.8
06:10 1020 30.12 849 25.07 8.1 46.6 58 0.4 32.7
06:15 1020 30.12 849 25.07 7.5 45.4 60 0.2 32.4
06:20 1020 30.12 849 25.07 7.5 45.5 59 -0.1 31.9
06:25 1020 30.12 849 25.07 8 46.3 57 -0.1 31.8
06:30 1020 30.12 849 25.07 8.2 46.8 56 0.1 32.1
06:35 1020 30.12 849 25.07 8.3 46.9 56 -0 32
06:40 1020 30.12 849 25.07 8.5 47.3 56 0.2 32.4
06:45 1020 30.12 849 25.07 8.3 46.9 56 0.1 32.2
06:50 1020 30.12 849 25.07 8.3 47 56 0.2 32.3
06:55 1020 30.12 849 25.07 8.4 47.1 56 0.3 32.5
07:00 1020 30.12 849 25.07 8.4 47 56 0.1 32.2
07:05 1020 30.12 849 25.07 8.5 47.3 56 0.3 32.5
07:10 1020 30.12 849 25.07 8.7 47.7 55 0.2 32.3
07:15 1020 30.12 849 25.07 9 48.3 54 0.3 32.6
07:20 1020 30.12 849 25.07 9.1 48.3 55 0.4 32.8
07:25 1020 30.12 849 25.07 9.2 48.6 55 0.6 33
07:30 1020 30.12 849 25.07 9.5 49.1 53 0.5 33
07:35 1020 30.12 849 25.07 9.9 49.8 52 0.5 33
07:40 1020 30.12 849 25.07 10.3 50.5 51 0.6 33.1
07:45 1020 30.12 849 25.07 10.5 50.9 51 1 33.7
07:50 1020 30.12 849 25.07 10.6 51 51 0.8 33.5
07:55 1020 30.12 849 25.07 11 51.8 50 0.9 33.7
08:00 1020 30.12 849 25.07 11.6 52.9 47 0.9 33.6
08:05 1020 30.12 849 25.07 12.3 54.1 46 1.2 34.1
08:10 1020 30.12 849 25.07 13 55.3 43 0.8 33.4
08:15 1020 30.12 849 25.07 13.3 56 44 1.3 34.4
08:20 1020 30.12 849 25.07 13.5 56.3 43 1.2 34.1
08:25 1020 30.12 849 25.07 14.1 57.3 42 1.4 34.4
08:30 1020 30.12 849 25.07 14.6 58.2 39 1 33.8
08:35 1020 30.12 849 25.07 15.4 59.7 38 1.4 34.4
08:40 1020 30.12 849 25.07 16.2 61.1 37 1.6 34.9
08:45 1020 30.12 849 25.07 16.4 61.5 38 2.1 35.8
08:50 1020 30.12 849 25.07 16.2 61.1 38 2.1 35.7
08:55 1020 30.12 849 25.07 16.5 61.7 38 2.1 35.7
09:00 1020 30.12 849 25.07 17.1 62.7 35 1.8 35.2
09:05 1020 30.12 849 25.07 17.4 63.4 35 1.9 35.4
09:10 1019 30.09 849 25.07 17 62.6 35 1.6 34.9
09:15 1019 30.09 849 25.07 16.7 62.1 35 1.3 34.3
09:20 1019 30.09 849 25.07 16.6 62 34 1 33.8
09:25 1019 30.09 849 25.07 17.2 63 34 1.3 34.3
09:30 1019 30.09 849 25.07 17.6 63.7 33 1.2 34.2
09:35 1019 30.09 849 25.07 17.7 63.9 33 1.6 34.8
09:40 1019 30.09 849 25.07 17.5 63.5 33 1 33.9
09:45 1019 30.09 848 25.04 17.9 64.1 31 0.6 33
09:50 1019 30.09 848 25.04 17.8 64 31 0.6 33.1
09:55 1019 30.09 848 25.04 18.5 65.2 31 1.4 34.5
10:00 1019 30.09 848 25.04 19.3 66.7 31 1.9 35.4
10:05 1019 30.09 848 25.04 20.1 68.3 29 1.8 35.2
10:10 1019 30.09 848 25.04 20.6 69.2 30 2.5 36.5
10:15 1019 30.09 848 25.04 20.6 69 30 2.6 36.7
10:20 1019 30.09 848 25.04 20.2 68.3 31 2.9 37.2
10:25 1019 30.09 848 25.04 19.2 66.6 33 2.9 37.2
10:30 1019 30.09 848 25.04 19.7 67.5 31 2.1 35.7
10:35 1019 30.09 848 25.04 20.5 68.9 29 2 35.7
10:40 1019 30.09 848 25.04 21.6 70.8 30 3.7 38.6
10:45 1019 30.09 848 25.04 20.8 69.4 32 3.7 38.7
10:50 1019 30.09 848 25.04 21 69.7 29 2.4 36.4
10:55 1019 30.09 848 25.04 21.8 71.3 28 2.5 36.4
11:00 1019 30.09 848 25.04 22 71.7 26 2 35.5
11:05 1019 30.09 848 25.04 22 71.7 27 2.3 36.2
11:10 1019 30.09 848 25.04 22 71.5 27 2.1 35.7
11:15 1019 30.09 848 25.04 22.4 72.3 25 1.8 35.2
11:20 1019 30.09 848 25.04 22.7 72.8 25 1.8 35.3
11:25 1019 30.09 848 25.04 23.3 73.9 24 1.6 34.9
11:30 1019 30.09 848 25.04 23.2 73.8 23 1.4 34.5
11:35 1019 30.09 848 25.04 23 73.5 24 1.8 35.2
11:40 1019 30.09 848 25.04 23.1 73.6 24 1.6 34.8
11:45 1019 30.09 848 25.04 23.4 74.1 24 2 35.7
11:50 1019 30.09 848 25.04 23.5 74.2 23 1.6 34.9
11:55 1019 30.09 848 25.04 23.8 74.9 21 0.2 32.4
12:00 1019 30.09 848 25.04 23.6 74.5 20 -0.3 31.5
12:05 1019 30.09 848 25.04 24 75.3 19 -0.5 31.1
12:10 1019 30.09 848 25.04 23.8 74.9 19 -1.2 29.9
12:15 1018 30.06 848 25.04 23.7 74.6 20 -0.2 31.7
12:20 1018 30.06 848 25.04 23.6 74.5 20 -0.3 31.5
12:25 1018 30.06 848 25.04 23.2 73.7 21 0.1 32.2
12:30 1018 30.06 848 25.04 22.9 73.2 21 -0.7 30.8
12:35 1018 30.06 848 25.04 23.1 73.6 19 -1.4 29.4
12:40 1018 30.06 848 25.04 22.7 72.9 22 -0.1 31.8
12:45 1018 30.06 848 25.04 22.8 73 21 -0.7 30.7
12:50 1018 30.06 847 25.01 23.4 74.2 21 -0 31.9
12:55 1018 30.06 847 25.01 23.6 74.5 21 0.4 32.6
13:00 1018 30.06 847 25.01 23.9 75 19 -0.6 30.8
13:05 1018 30.06 847 25.01 23.6 74.4 20 -0.4 31.4
13:10 1018 30.06 847 25.01 23.4 74 21 0.3 32.6
13:15 1018 30.06 847 25.01 23.5 74.4 19 -0.9 30.3
13:20 1018 30.06 847 25.01 23.2 73.8 21 -0.1 31.8
13:25 1018 30.06 847 25.01 23.5 74.4 22 0.7 33.3
13:30 1018 30.06 847 25.01 24.1 75.4 19 -0.7 30.8
13:35 1018 30.06 847 25.01 24.4 76 19 -0.6 30.9
13:40 1018 30.06 847 25.01 24.2 75.6 20 0.1 32.2
13:45 1018 30.06 847 25.01 24.2 75.6 19 -1 30.2
13:50 1018 30.06 847 25.01 24.2 75.5 19 -0.5 31.1
13:55 1018 30.06 847 25.01 24.7 76.5 19 -0.2 31.7
14:00 1018 30.06 847 25.01 24.8 76.6 18 -0.6 31
14:05 1017 30.03 847 25.01 25 77 18 -0.8 30.6
14:10 1017 30.03 847 25.01 25.1 77.1 17 -1.1 30
14:15 1017 30.03 847 25.01 25 77 17 -1.2 29.8
14:20 1017 30.03 847 25.01 25 77 17 -1.7 28.9
14:25 1017 30.03 846 24.98 24.8 76.6 18 -1.1 30.1
14:30 1017 30.03 846 24.98 24.9 76.9 18 -1 30.1
14:35 1017 30.03 846 24.98 24.8 76.6 18 -0.6 30.9
14:40 1017 30.03 846 24.98 24.8 76.6 18 -0.8 30.5
14:45 1017 30.03 846 24.98 25.5 77.9 17 -0.8 30.6
14:50 1017 30.03 846 24.98 26.1 79 18 0 32.1
14:55 1017 30.03 846 24.98 26 78.8 17 -1.1 30.1
15:00 1017 30.03 846 24.98 25.4 77.7 18 -0.5 31
15:05 1017 30.03 846 24.98 25.6 78 18 -0.5 31.1
15:10 1017 30.03 846 24.98 24.8 76.6 19 -0.4 31.2
15:15 1017 30.03 846 24.98 24.4 75.8 20 -0.1 31.8
15:20 1017 30.03 846 24.98 24.4 75.9 19 -0.2 31.7
15:25 1017 30.03 846 24.98 25.1 77.1 17 -1.8 28.8
15:30 1017 30.03 846 24.98 24.8 76.6 18 -1.2 29.8
15:35 1017 30.03 846 24.98 24.4 76 18 -1.1 30.1
15:40 1017 30.03 846 24.98 24.5 76.1 18 -1.4 29.5
15:45 1017 30.03 846 24.98 24.8 76.6 19 -0.4 31.4
15:50 1017 30.03 846 24.98 24.4 76 17 -1.7 29
15:55 1017 30.03 846 24.98 24.7 76.4 18 -1.2 29.8
16:00 1017 30.03 846 24.98 24.7 76.5 18 -0.9 30.4
16:05 1016 30 846 24.98 25 77 17 -1.1 29.9
16:10 1016 30 846 24.98 24.8 76.6 18 -1 30.3
16:15 1017 30.03 846 24.98 24.6 76.4 18 -0.7 30.8
16:20 1017 30.03 846 24.98 24.4 76 19 -0.7 30.7
16:25 1016 30 846 24.98 24.4 75.9 18 -1 30.1
16:30 1016 30 846 24.98 24.3 75.7 18 -1 30.2
16:35 1016 30 846 24.98 24.1 75.4 20 -0.1 31.9
16:40 1016 30 846 24.98 24.1 75.4 18 -1.2 29.9
16:45 1016 30 846 24.98 24.4 76 19 -0.6 30.9
16:50 1016 30 845 24.95 24.4 75.8 18 -1.5 29.2
16:55 1016 30 846 24.98 24 75.3 19 -1.1 30
17:00 1016 30 845 24.95 24.3 75.8 18 -1.5 29.3
17:05 1016 30 845 24.95 24.7 76.5 18 -0.9 30.3
17:10 1016 30 845 24.95 24.6 76.2 19 -0.6 30.8
17:15 1016 30 845 24.95 24.6 76.3 19 -0.6 31
17:20 1016 30 845 24.95 24.2 75.5 20 -0.3 31.5
17:25 1016 30 845 24.95 23.8 74.9 21 0.5 33
17:30 1016 30 845 24.95 23.7 74.7 20 -0.2 31.6
17:35 1016 30 845 24.95 23.9 74.9 21 0.3 32.6
17:40 1016 30 845 24.95 23.6 74.5 21 0.5 33
17:45 1016 30 845 24.95 23.6 74.5 20 -0.4 31.3
17:50 1016 30 845 24.95 23.4 74.2 21 -0.1 31.8
17:55 1016 30 845 24.95 23.2 73.7 21 -0.3 31.5
18:00 1016 30 845 24.95 23.4 74.1 21 -0.3 31.5
18:05 1016 30 845 24.95 24 75.2 19 -0.7 30.7
18:10 1016 30 845 24.95 24.1 75.3 19 -1.1 30.1
18:15 1016 30 845 24.95 23.7 74.6 20 -0.5 31.1
18:20 1016 30 845 24.95 23.1 73.7 22 0.4 32.7
18:25 1016 30 846 24.98 22.8 73 21 -0.3 31.5
18:30 1016 30 846 24.98 22.8 73.1 22 -0.1 31.9
18:35 1016 30 846 24.98 23.1 73.7 22 0.4 32.7
18:40 1016 30 846 24.98 23.2 73.8 22 0.7 33.3
18:45 1016 30 846 24.98 23 73.4 22 0.6 33
18:50 1016 30 846 24.98 22.6 72.7 22 0.3 32.5
18:55 1016 30 846 24.98 22.6 72.7 24 1.1 33.9
19:00 1016 30 846 24.98 22.7 72.9 23 0.6 33.2
19:05 1016 30 846 24.98 22.8 73.1 23 1.1 33.9
19:10 1016 30 846 24.98 22.5 72.4 25 1.4 34.5
19:15 1016 30 845 24.95 22.1 71.8 25 1.2 34.2
19:20 1016 30 845 24.95 21.8 71.3 25 1 33.9
19:25 1016 30 845 24.95 21.6 70.9 25 0.7 33.2
19:30 1016 30 845 24.95 21.6 70.8 25 0.9 33.5
19:35 1016 30 846 24.98 21.4 70.5 26 1.3 34.4
19:40 1016 30 846 24.98 21.1 69.9 26 1 33.9
19:45 1016 30 846 24.98 21 69.8 27 1.3 34.4
19:50 1016 30 846 24.98 20.9 69.5 28 1.7 35
19:55 1016 30 846 24.98 20.7 69.3 26 0.6 33.1
20:00 1017 30.03 846 24.98 20.8 69.5 28 1.6 34.9
20:05 1017 30.03 846 24.98 20.4 68.6 28 1.4 34.6
20:10 1017 30.03 846 24.98 20.2 68.3 29 1.5 34.8
20:15 1017 30.03 846 24.98 20 68.1 29 1.6 34.8
20:20 1016 30 846 24.98 19.8 67.7 30 2.1 35.8
20:25 1017 30.03 846 24.98 19.5 67 30 1.7 35
20:30 1017 30.03 846 24.98 19.8 67.6 28 0.8 33.4
20:35 1016 30 846 24.98 20.1 68.1 27 0.8 33.5
20:40 1016 30 846 24.98 20.3 68.5 28 1.2 34.1
20:45 1017 30.03 846 24.98 20 68 29 1.8 35.2
20:50 1017 30.03 846 24.98 20 68.1 29 1.4 34.5
20:55 1017 30.03 846 24.98 19.9 67.9 29 1.6 34.9
21:00 1017 30.03 846 24.98 19.8 67.7 28 0.9 33.7
21:05 1017 30.03 846 24.98 19.9 67.8 28 1 33.8
21:10 1017 30.03 846 24.98 20.1 68.1 27 0.9 33.5
21:15 1017 30.03 846 24.98 19.7 67.5 31 2.4 36.4
21:20 1017 30.03 846 24.98 19.3 66.8 32 2.5 36.6
21:25 1017 30.03 846 24.98 19.3 66.7 32 2.2 35.9
21:30 1017 30.03 846 24.98 19.3 66.8 33 2.6 36.8
21:35 1017 30.03 846 24.98 19.2 66.5 32 2.4 36.4
21:40 1017 30.03 846 24.98 19.1 66.3 33 2.5 36.5
21:45 1017 30.03 846 24.98 19.1 66.3 32 2.3 36.2
21:50 1017 30.03 847 25.01 19.1 66.4 32 2.1 35.7
21:55 1017 30.03 846 24.98 19.3 66.7 31 1.7 35.1
22:00 1017 30.03 846 24.98 19.3 66.7 32 2.5 36.5
22:05 1017 30.03 846 24.98 18.6 65.5 34 2.8 37
22:10 1017 30.03 847 25.01 18.1 64.5 38 3.8 38.8
22:15 1018 30.06 847 25.01 18.1 64.7 35 2.4 36.3
22:20 1018 30.06 847 25.01 18.2 64.8 37 3.4 38.1
22:25 1018 30.06 847 25.01 17 62.6 41 3.9 39
22:30 1018 30.06 847 25.01 16.6 62 40 3.1 37.5
22:35 1018 30.06 847 25.01 16.6 61.9 39 2.6 36.7
22:40 1018 30.06 847 25.01 16.7 62.1 38 2.4 36.4
22:45 1018 30.06 847 25.01 16.4 61.5 41 3.1 37.6
22:50 1018 30.06 847 25.01 15.6 60 45 3.6 38.5
22:55 1018 30.06 848 25.04 15.3 59.6 45 3.6 38.4
23:00 1018 30.06 848 25.04 15.1 59.2 45 3.5 38.2
23:05 1018 30.06 848 25.04 14.8 58.6 45 3 37.5
23:10 1019 30.09 848 25.04 14.3 57.8 44 2.2 35.9
23:15 1019 30.09 848 25.04 14.5 58.1 41 1.4 34.5
23:20 1019 30.09 848 25.04 14.4 58 42 1.6 35
23:25 1019 30.09 848 25.04 14 57.2 41 1 33.8
23:30 1019 30.09 848 25.04 14.2 57.6 39 0.4 32.8
23:35 1019 30.09 848 25.04 14.5 58 39 0.6 33.1
23:40 1019 30.09 848 25.04 14 57.2 42 1.4 34.4
23:45 1019 30.09 848 25.04 13.8 56.8 41 0.8 33.4
23:50 1019 30.09 848 25.04 13.9 57 39 0.2 32.4
23:55 1019 30.09 848 25.04 14.4 58 36 -0.4 31.4
24:00 1019 30.09 848 25.04 14.8 58.6 35 -0.4 31.2